This is the latest recevied weather packets stored in our database for station/object WX1NWA. If no packets are shown the sender has not sent any weather packets the latest 1 day(s).
| Time | Temp. | Humidity | Pressure | Rain* | Wind** | Luminosity | Snow |
|---|---|---|---|---|---|---|---|
| 1836274696 | 20.56° C | 83% | 1021.7 hPa | 0 mm | 0 m/s | 0 W/m² | - |
| 1836274549 | 21.11° C | 83% | 1021.7 hPa | 0 mm | 0 m/s | 0 W/m² | - |
| 1836274394 | 20.56° C | 83% | 1021.7 hPa | 0 mm | 0.89 m/s, 268° | 0 W/m² | - |
| 1836274247 | 21.11° C | 83% | 1021.7 hPa | 0 mm | 0.45 m/s, 255° | 0 W/m² | - |
| 1836274093 | 20.56° C | 81% | 1022 hPa | 0 mm | 0.45 m/s, 238° | 0 W/m² | - |
| 1778031044 | 8.33° C | 99% | 1010.8 hPa | 0 mm | 0.89 m/s, 301° | 0 W/m² | - |
| 1778030740 | 8.33° C | 99% | 1011.1 hPa | 1.78 mm | 0.45 m/s, 354° | 0 W/m² | - |
| 1778030437 | 8.89° C | 99% | 1011.6 hPa | 1.78 mm | 0 m/s | 0 W/m² | - |
| 1778030135 | 8.89° C | 99% | 1011.6 hPa | 0 mm | 0.89 m/s, 300° | 0 W/m² | - |
| 1778029831 | 8.89° C | 99% | 1011.2 hPa | 0 mm | 1.34 m/s, 309° | 0 W/m² | - |
| 1778029530 | 8.89° C | 99% | 1011.4 hPa | 0 mm | 0.45 m/s, 305° | 0 W/m² | - |
| 1778029226 | 8.89° C | 99% | 1011.4 hPa | 0 mm | 0.89 m/s, 309° | 0 W/m² | - |
| 1778028923 | 8.89° C | 99% | 1010.9 hPa | 0 mm | 1.34 m/s, 309° | 0 W/m² | - |
| 1778028619 | 8.89° C | 99% | 1010.7 hPa | 0 mm | 0.45 m/s, 286° | 0 W/m² | - |
| 1778028317 | 8.89° C | 99% | 1010.5 hPa | 1.27 mm | 0.89 m/s, 300° | 0 W/m² | - |
| 1778028014 | 8.89° C | 99% | 1010.2 hPa | 1.27 mm | 0.89 m/s, 302° | 0 W/m² | - |
| 1778027710 | 8.89° C | 99% | 1010.4 hPa | 3.05 mm | 0.89 m/s, 310° | 0 W/m² | - |
| 1778027406 | 9.44° C | 99% | 1010.2 hPa | 3.05 mm | 0.45 m/s, 292° | 0 W/m² | - |
| 1778027102 | 9.44° C | 99% | 1010.2 hPa | 0 mm | 0.89 m/s, 297° | 1 W/m² | - |
| 1778026797 | 9.44° C | 99% | 1009.9 hPa | 0 mm | 0.89 m/s, 271° | 0 W/m² | - |
| 1778026494 | 9.44° C | 99% | 1009.6 hPa | 0 mm | 0.45 m/s, 287° | 2 W/m² | - |
| 1778026192 | 10° C | 99% | 1009.6 hPa | 0 mm | 0.45 m/s, 293° | 3 W/m² | - |
| 1778025889 | 10° C | 99% | 1009.6 hPa | 0 mm | 0.45 m/s, 290° | 4 W/m² | - |
| 1778025586 | 10.56° C | 99% | 1009.9 hPa | 0 mm | 0.89 m/s, 325° | 4 W/m² | - |
| 1778025284 | 10.56° C | 99% | 1009.6 hPa | 1.78 mm | 0.89 m/s, 288° | 7 W/m² | - |
* Rain latest hour (hover to see other rain measurements)
** Current wind speed in m/s (hover to see current wind gust speed)